createdAt,value
2022-11-09T00:00:53.384Z,9.32
2022-11-09T00:03:20.714Z,8.65
2022-11-09T00:05:58.392Z,9.57
2022-11-09T00:08:26.410Z,8.70
2022-11-09T00:10:53.781Z,9.57
2022-11-09T00:13:21.471Z,8.02
2022-11-09T00:15:48.823Z,9.05
2022-11-09T00:18:15.808Z,8.98
2022-11-09T00:20:47.605Z,9.27
2022-11-09T00:23:17.812Z,10.93
2022-11-09T00:25:45.289Z,9.95
2022-11-09T00:28:12.516Z,11.40
2022-11-09T00:30:40.360Z,9.88
2022-11-09T00:33:08.841Z,9.88
2022-11-09T00:35:38.717Z,10.75
2022-11-09T00:38:05.783Z,10.25
2022-11-09T00:40:33.624Z,10.07
2022-11-09T00:43:00.566Z,9.43
2022-11-09T00:45:27.499Z,9.55
2022-11-09T00:47:55.570Z,9.52
2022-11-09T00:50:22.730Z,9.88
2022-11-09T00:52:51.017Z,9.88
2022-11-09T00:55:21.081Z,10.18
2022-11-09T00:57:51.905Z,10.95
2022-11-09T01:00:23.792Z,9.70
2022-11-09T01:02:52.833Z,10.57
2022-11-09T01:05:20.676Z,10.48
2022-11-09T01:07:50.053Z,9.70
2022-11-09T01:10:17.145Z,9.98
2022-11-09T01:12:46.684Z,10.07
2022-11-09T01:15:14.994Z,9.90
2022-11-09T01:17:42.143Z,9.98
2022-11-09T01:20:09.731Z,10.50
2022-11-09T01:22:37.004Z,10.55
2022-11-09T01:25:04.339Z,10.23
2022-11-09T01:27:32.305Z,11.27
2022-11-09T01:29:59.280Z,11.98
2022-11-09T01:32:26.653Z,12.35
2022-11-09T01:34:53.715Z,9.88
2022-11-09T01:37:20.705Z,10.18
2022-11-09T01:39:47.748Z,10.38
2022-11-09T01:42:15.996Z,10.40
2022-11-09T01:44:43.102Z,10.15
2022-11-09T01:47:22.270Z,9.85
2022-11-09T01:49:58.328Z,9.43
2022-11-09T01:52:40.552Z,9.65
2022-11-09T01:55:16.613Z,9.55
2022-11-09T01:57:49.814Z,10.77
2022-11-09T02:00:17.998Z,9.55
2022-11-09T02:03:04.637Z,9.57
2022-11-09T02:05:35.008Z,10.48
2022-11-09T02:08:04.803Z,10.60
2022-11-09T02:11:09.899Z,10.50
2022-11-09T02:13:44.502Z,9.52
2022-11-09T02:16:13.276Z,9.68
2022-11-09T02:18:51.649Z,9.98
2022-11-09T02:21:19.785Z,10.00
2022-11-09T02:23:48.448Z,10.52
2022-11-09T02:26:24.803Z,11.85
2022-11-09T02:28:55.348Z,11.93
2022-11-09T02:31:28.285Z,11.77
2022-11-09T02:34:03.074Z,11.60
2022-11-09T02:36:30.053Z,11.88
2022-11-09T02:38:58.507Z,14.00
2022-11-09T02:41:26.445Z,12.43
2022-11-09T02:43:55.020Z,13.02
2022-11-09T02:46:25.273Z,12.48
2022-11-09T02:48:52.704Z,13.07
2022-11-09T02:51:19.811Z,12.30
2022-11-09T02:53:46.861Z,12.38
2022-11-09T02:56:14.184Z,12.70
2022-11-09T02:58:41.548Z,11.82
2022-11-09T03:01:08.884Z,13.50
2022-11-09T03:03:37.049Z,12.50
2022-11-09T03:06:05.594Z,11.65
2022-11-09T03:08:33.065Z,12.23
2022-11-09T03:11:01.095Z,11.90
2022-11-09T03:13:28.241Z,11.77
2022-11-09T03:15:57.556Z,12.20
2022-11-09T03:18:24.891Z,12.45
2022-11-09T03:20:51.932Z,13.27
2022-11-09T03:23:19.208Z,12.05
2022-11-09T03:25:46.526Z,13.10
2022-11-09T03:28:14.940Z,12.35
2022-11-09T03:30:42.033Z,11.93
2022-11-09T03:33:12.879Z,12.75
2022-11-09T03:35:41.405Z,11.77
2022-11-09T03:38:08.445Z,12.05
2022-11-09T03:40:36.488Z,11.40
2022-11-09T03:43:05.002Z,12.23
2022-11-09T03:45:32.172Z,12.10
2022-11-09T03:48:00.570Z,11.80
2022-11-09T03:50:29.186Z,12.82
2022-11-09T03:52:56.889Z,12.50
2022-11-09T03:55:25.118Z,12.43
2022-11-09T03:57:52.615Z,12.38
2022-11-09T04:00:21.771Z,12.00
2022-11-09T04:02:50.164Z,11.80
2022-11-09T04:05:17.364Z,12.70
2022-11-09T04:07:52.263Z,12.95
2022-11-09T04:10:20.159Z,12.00
2022-11-09T04:12:47.230Z,12.38
2022-11-09T04:15:15.083Z,14.20
2022-11-09T04:17:44.665Z,13.57
2022-11-09T04:20:12.344Z,14.50
2022-11-09T04:22:39.326Z,14.45
2022-11-09T04:25:06.812Z,13.75
2022-11-09T04:27:33.953Z,14.27
2022-11-09T04:30:01.066Z,14.02
2022-11-09T04:32:28.045Z,14.68
2022-11-09T04:34:55.009Z,15.55
2022-11-09T04:37:21.972Z,14.65
2022-11-09T04:39:48.959Z,14.65
2022-11-09T04:42:15.862Z,14.52
2022-11-09T04:44:43.750Z,14.25
2022-11-09T04:47:10.854Z,13.20
2022-11-09T04:49:38.451Z,15.55
2022-11-09T04:52:05.909Z,14.88
2022-11-09T04:54:32.892Z,15.48
2022-11-09T04:57:00.814Z,14.55
2022-11-09T04:59:28.044Z,16.95
2022-11-09T05:01:54.974Z,16.80
2022-11-09T05:04:22.006Z,16.20
2022-11-09T05:06:49.106Z,16.63
2022-11-09T05:09:16.086Z,16.88
2022-11-09T05:11:44.001Z,15.70
2022-11-09T05:14:11.454Z,16.67
2022-11-09T05:16:38.515Z,16.33
2022-11-09T05:19:05.512Z,17.27
2022-11-09T05:21:32.574Z,16.80
2022-11-09T05:23:59.595Z,16.92
2022-11-09T05:26:35.590Z,16.35
2022-11-09T05:29:06.341Z,17.33
2022-11-09T05:31:34.040Z,18.20
2022-11-09T05:34:01.490Z,19.20
2022-11-09T05:36:30.479Z,19.35
2022-11-09T05:38:58.087Z,20.15
2022-11-09T05:41:25.221Z,19.73
2022-11-09T05:43:52.439Z,20.45
2022-11-09T05:46:20.000Z,20.77
2022-11-09T05:48:47.276Z,21.45
2022-11-09T05:51:15.049Z,21.10
2022-11-09T05:53:46.110Z,20.38
2022-11-09T05:56:15.000Z,21.50
2022-11-09T05:58:42.738Z,21.58
2022-11-09T06:01:12.584Z,20.15
2022-11-09T06:03:40.514Z,19.65
2022-11-09T06:06:09.241Z,20.45
2022-11-09T06:08:37.427Z,21.65
2022-11-09T06:11:07.889Z,19.55
2022-11-09T06:13:35.254Z,20.67
2022-11-09T06:16:04.309Z,22.58
2022-11-09T06:18:32.788Z,22.48
2022-11-09T06:21:03.012Z,22.67
2022-11-09T06:23:30.309Z,21.70
2022-11-09T06:26:03.225Z,20.85
2022-11-09T06:28:30.378Z,20.80
2022-11-09T06:30:58.995Z,24.77
2022-11-09T06:33:26.293Z,26.52
2022-11-09T06:35:56.323Z,25.25
2022-11-09T06:38:26.382Z,23.67
2022-11-09T06:40:54.949Z,21.92
2022-11-09T06:43:22.563Z,26.08
2022-11-09T06:45:50.287Z,24.92
2022-11-09T06:48:17.842Z,29.63
2022-11-09T06:50:44.830Z,26.63
2022-11-09T06:53:14.026Z,25.10
2022-11-09T06:55:45.813Z,27.02
2022-11-09T06:58:16.403Z,29.80
2022-11-09T07:00:44.712Z,28.90
2022-11-09T07:03:22.314Z,28.60
2022-11-09T07:05:51.131Z,27.20
2022-11-09T07:08:18.947Z,25.23
2022-11-09T07:10:46.026Z,24.08
2022-11-09T07:13:13.241Z,26.95
2022-11-09T07:15:40.258Z,25.55
2022-11-09T07:18:10.948Z,24.50
2022-11-09T07:20:38.372Z,27.38
2022-11-09T07:23:05.398Z,27.17
2022-11-09T07:25:32.753Z,26.30
2022-11-09T07:28:08.596Z,27.00
2022-11-09T07:30:39.408Z,24.65
2022-11-09T07:33:20.579Z,25.83
2022-11-09T07:35:48.057Z,27.13
2022-11-09T07:38:19.715Z,26.48
2022-11-09T07:40:46.755Z,26.60
2022-11-09T07:43:13.757Z,25.70
2022-11-09T07:45:42.526Z,26.58
2022-11-09T07:48:10.966Z,28.98
2022-11-09T07:50:39.614Z,27.00
2022-11-09T07:53:07.535Z,27.35
2022-11-09T07:55:35.517Z,28.23
2022-11-09T07:58:08.366Z,28.08
2022-11-09T08:00:37.052Z,27.70
2022-11-09T08:03:04.633Z,27.23
2022-11-09T08:05:31.902Z,26.10
2022-11-09T08:08:01.366Z,27.58
2022-11-09T08:10:29.710Z,26.13
2022-11-09T08:12:59.476Z,26.83
2022-11-09T08:15:27.193Z,26.60
2022-11-09T08:17:54.603Z,26.67
2022-11-09T08:20:21.649Z,26.92
2022-11-09T08:22:48.642Z,25.27
2022-11-09T08:25:15.960Z,34.50
2022-11-09T08:27:43.535Z,42.95
2022-11-09T08:30:15.021Z,48.97
2022-11-09T08:32:43.065Z,45.00
2022-11-09T08:35:12.534Z,48.85
2022-11-09T08:37:39.896Z,46.50
2022-11-09T08:40:07.749Z,46.13
2022-11-09T08:42:34.667Z,47.05
2022-11-09T08:45:01.737Z,41.17
2022-11-09T08:47:29.330Z,38.00
2022-11-09T08:49:56.520Z,33.63
2022-11-09T08:52:23.787Z,30.15
2022-11-09T08:54:50.709Z,29.17
2022-11-09T08:57:19.132Z,28.85
2022-11-09T08:59:46.628Z,28.15
2022-11-09T09:02:14.724Z,27.85
2022-11-09T09:04:42.193Z,25.55
2022-11-09T09:07:09.552Z,27.67
2022-11-09T09:09:38.246Z,25.55
2022-11-09T09:12:09.510Z,27.42
2022-11-09T09:14:36.936Z,26.33
2022-11-09T09:17:04.163Z,27.33
2022-11-09T09:19:32.104Z,27.08
2022-11-09T09:22:01.334Z,27.73
2022-11-09T09:24:28.435Z,28.90
2022-11-09T09:26:55.524Z,27.73
2022-11-09T09:29:22.447Z,25.10
2022-11-09T09:31:50.418Z,28.13
2022-11-09T09:34:17.861Z,28.05
2022-11-09T09:36:47.873Z,27.20
2022-11-09T09:39:15.640Z,28.38
2022-11-09T09:41:55.594Z,28.38
2022-11-09T09:44:29.343Z,27.45
2022-11-09T09:50:04.249Z,27.48
2022-11-09T09:52:33.999Z,29.98
2022-11-09T09:55:18.961Z,30.15
2022-11-09T09:57:51.422Z,30.58
2022-11-09T10:00:25.867Z,28.60
2022-11-09T10:02:53.631Z,31.00
2022-11-09T10:05:28.183Z,30.88
2022-11-09T10:08:15.437Z,31.10
2022-11-09T10:10:46.358Z,31.05
2022-11-09T10:13:28.653Z,32.28
2022-11-09T10:16:21.601Z,29.45
2022-11-09T10:18:57.084Z,31.50
2022-11-09T10:21:45.082Z,32.33
2022-11-09T10:24:23.788Z,31.92
2022-11-09T10:26:54.539Z,32.03
2022-11-09T10:29:23.794Z,33.15
2022-11-09T10:31:56.312Z,33.78
2022-11-09T10:34:33.350Z,30.10
2022-11-09T10:37:06.191Z,33.53
2022-11-09T10:39:46.707Z,31.57
2022-11-09T10:42:32.288Z,33.90
2022-11-09T10:45:27.383Z,32.78
2022-11-09T10:48:14.117Z,31.98
2022-11-09T10:50:59.962Z,33.83
2022-11-09T10:53:45.445Z,32.50
2022-11-09T10:57:05.008Z,32.50
2022-11-09T10:59:56.999Z,30.92
2022-11-09T11:02:44.698Z,31.67
2022-11-09T11:05:31.962Z,32.03
2022-11-09T11:08:25.683Z,32.80
2022-11-09T11:11:38.038Z,33.63
2022-11-09T11:14:26.987Z,31.98
2022-11-09T11:17:34.774Z,32.78
2022-11-09T11:20:26.916Z,33.45
2022-11-09T11:23:17.334Z,33.67
2022-11-09T11:26:33.865Z,32.42
2022-11-09T11:29:19.213Z,31.08
2022-11-09T11:32:08.919Z,34.00
2022-11-09T11:35:00.084Z,33.35
2022-11-09T11:38:10.901Z,33.83
2022-11-09T11:41:17.118Z,34.90
2022-11-09T11:44:41.063Z,35.13
2022-11-09T11:47:33.916Z,35.13
2022-11-09T11:53:43.676Z,34.25
2022-11-09T11:56:43.222Z,37.22
2022-11-09T11:59:56.196Z,37.42
2022-11-09T12:03:16.625Z,37.75
2022-11-09T12:06:43.972Z,37.00
2022-11-09T12:10:11.499Z,36.47
2022-11-09T12:13:27.355Z,37.83
2022-11-09T12:16:31.250Z,38.75
2022-11-09T12:19:35.967Z,36.33
2022-11-09T12:22:45.580Z,37.13
2022-11-09T12:25:47.090Z,39.53
2022-11-09T12:29:00.418Z,37.28
2022-11-09T12:32:02.692Z,39.72
2022-11-09T12:35:09.927Z,39.75
2022-11-09T12:38:18.146Z,41.45
2022-11-09T12:41:16.336Z,40.55
2022-11-09T12:44:17.128Z,40.88
2022-11-09T12:47:22.484Z,42.10
2022-11-09T12:50:17.362Z,43.50
2022-11-09T12:53:04.300Z,44.05
2022-11-09T12:55:54.527Z,43.05
2022-11-09T12:58:40.304Z,45.58
2022-11-09T13:01:35.189Z,44.22
2022-11-09T13:04:23.193Z,43.65
2022-11-09T13:07:17.413Z,44.80
2022-11-09T13:12:48.777Z,42.42
2022-11-09T13:15:35.197Z,44.50
2022-11-09T13:18:55.307Z,45.92
2022-11-09T13:21:40.749Z,45.67
2022-11-09T13:24:32.307Z,44.85
2022-11-09T13:27:37.964Z,47.10
2022-11-09T13:30:28.332Z,49.35
2022-11-09T13:33:23.098Z,54.15
2022-11-09T13:36:08.991Z,47.03
2022-11-09T13:39:24.138Z,45.58
2022-11-09T13:42:30.507Z,44.22
2022-11-09T13:45:29.787Z,42.60
2022-11-09T13:48:38.889Z,44.03
2022-11-09T13:51:36.465Z,42.25
2022-11-09T13:54:29.738Z,43.08
2022-11-09T13:57:16.552Z,45.78
2022-11-09T14:00:05.079Z,45.72
2022-11-09T14:03:12.989Z,45.90
2022-11-09T14:06:00.367Z,46.90
2022-11-09T14:08:46.956Z,43.20
2022-11-09T14:12:11.825Z,44.17
2022-11-09T14:15:30.204Z,45.15
2022-11-09T14:18:33.630Z,46.88
2022-11-09T14:21:34.032Z,46.58
2022-11-09T14:24:28.296Z,46.40
2022-11-09T14:27:17.712Z,45.03
2022-11-09T14:30:03.139Z,44.63
2022-11-09T14:32:56.449Z,43.80
2022-11-09T14:35:41.983Z,42.60
2022-11-09T14:38:35.151Z,46.47
2022-11-09T14:41:25.085Z,43.90
2022-11-09T14:44:22.925Z,48.33
2022-11-09T14:47:29.408Z,52.95
2022-11-09T14:50:24.910Z,47.05
2022-11-09T14:53:28.481Z,46.50
2022-11-09T14:56:18.513Z,44.63
2022-11-09T14:59:14.320Z,44.85
2022-11-09T15:02:20.094Z,44.03
2022-11-09T15:05:07.376Z,44.78
2022-11-09T15:07:53.433Z,43.58
2022-11-09T15:10:39.067Z,46.70
2022-11-09T15:13:29.431Z,49.30
2022-11-09T15:16:23.991Z,49.42
2022-11-09T15:19:31.575Z,51.88
2022-11-09T15:22:35.267Z,51.30
2022-11-09T15:25:39.266Z,49.10
2022-11-09T15:28:27.676Z,49.57
2022-11-09T15:31:16.394Z,48.85
2022-11-09T15:34:02.223Z,44.95
2022-11-09T15:36:56.645Z,50.17
2022-11-09T15:39:41.995Z,59.90
2022-11-09T15:42:27.563Z,58.67
2022-11-09T15:45:19.128Z,60.30
2022-11-09T15:48:04.883Z,64.13
2022-11-09T15:50:50.490Z,60.90
2022-11-09T15:53:35.731Z,61.55
2022-11-09T15:56:23.910Z,60.25
2022-11-09T15:59:25.084Z,62.70
2022-11-09T16:02:12.047Z,61.72
2022-11-09T16:04:57.250Z,63.42
2022-11-09T16:07:50.292Z,56.25
2022-11-09T16:10:39.868Z,55.38
2022-11-09T16:13:25.377Z,56.45
2022-11-09T16:16:13.173Z,57.10
2022-11-09T16:18:59.370Z,61.58
2022-11-09T16:21:44.610Z,63.58
2022-11-09T16:24:30.366Z,69.00
2022-11-09T16:27:35.225Z,69.38
2022-11-09T16:30:21.743Z,72.72
2022-11-09T16:33:07.836Z,69.90
2022-11-09T16:35:55.050Z,68.20
2022-11-09T16:38:46.310Z,66.78
2022-11-09T16:41:31.726Z,64.05
2022-11-09T16:44:20.850Z,61.60
2022-11-09T16:47:09.733Z,60.50
2022-11-09T16:49:55.239Z,57.75
2022-11-09T16:52:41.166Z,62.13
2022-11-09T16:55:26.962Z,61.83
2022-11-09T16:58:12.756Z,56.28
2022-11-09T17:01:16.375Z,58.67
2022-11-09T17:04:03.717Z,58.10
2022-11-09T17:06:50.308Z,57.22
2022-11-09T17:09:36.035Z,53.22
2022-11-09T17:12:21.363Z,53.42
2022-11-09T17:15:07.434Z,62.20
2022-11-09T17:17:52.726Z,57.45
2022-11-09T17:20:46.299Z,58.63
2022-11-09T17:23:32.178Z,60.05
2022-11-09T17:26:19.207Z,66.10
2022-11-09T17:29:05.300Z,77.43
2022-11-09T17:31:50.561Z,74.88
2022-11-09T17:34:36.324Z,69.85
2022-11-09T17:37:21.961Z,61.65
2022-11-09T17:40:07.680Z,60.03
2022-11-09T17:42:53.007Z,58.22
2022-11-09T17:45:38.679Z,57.42
2022-11-09T17:48:24.148Z,58.13
2022-11-09T17:51:10.715Z,55.03
2022-11-09T17:53:56.176Z,55.38
2022-11-09T18:09:39.133Z,49.67
2022-11-09T18:12:10.428Z,50.35
2022-11-09T18:14:56.100Z,50.13
2022-11-09T18:17:41.205Z,53.00
2022-11-09T18:20:27.010Z,53.65
2022-11-09T18:23:13.054Z,56.88
2022-11-09T18:25:59.204Z,58.22
2022-11-09T18:28:44.941Z,62.28
2022-11-09T18:31:30.307Z,56.72
2022-11-09T18:34:15.918Z,51.58
2022-11-09T18:37:01.192Z,49.70
2022-11-09T18:39:46.731Z,51.55
2022-11-09T18:42:32.380Z,56.38
2022-11-09T18:45:18.099Z,51.17
2022-11-09T18:48:03.415Z,53.22
2022-11-09T18:50:53.287Z,53.28
2022-11-09T18:53:41.518Z,54.38
2022-11-09T18:56:26.949Z,55.83
2022-11-09T18:59:12.869Z,57.08
2022-11-09T19:01:58.113Z,60.60
2022-11-09T19:04:44.889Z,57.40
2022-11-09T19:07:30.346Z,52.85
2022-11-09T19:10:16.295Z,55.10
2022-11-09T19:13:02.247Z,59.95
2022-11-09T19:15:47.613Z,57.58
2022-11-09T19:18:33.185Z,57.92
2022-11-09T19:21:24.775Z,57.33
2022-11-09T19:24:15.409Z,59.55
2022-11-09T19:27:01.576Z,60.45
2022-11-09T19:29:47.822Z,60.65
2022-11-09T19:32:33.260Z,58.10
2022-11-09T19:35:24.840Z,55.78
2022-11-09T19:38:12.099Z,56.28
2022-11-09T19:40:57.504Z,59.53
2022-11-09T19:43:42.972Z,59.95
2022-11-09T19:46:33.180Z,60.22
2022-11-09T19:49:18.519Z,59.25
2022-11-09T19:52:04.311Z,60.30
2022-11-09T19:54:49.465Z,58.50
2022-11-09T19:57:35.354Z,59.05
2022-11-09T20:00:21.502Z,54.50
2022-11-09T20:03:06.904Z,55.05
2022-11-09T20:05:55.888Z,53.80
2022-11-09T20:08:41.426Z,54.33
2022-11-09T20:11:46.912Z,55.83
2022-11-09T20:14:32.440Z,52.85
2022-11-09T20:17:17.965Z,55.65
2022-11-09T20:20:03.670Z,57.15
2022-11-09T20:22:49.411Z,58.75
2022-11-09T20:25:34.994Z,58.70
2022-11-09T20:28:21.018Z,58.30
2022-11-09T20:31:19.695Z,59.08
2022-11-09T20:34:06.165Z,57.13
2022-11-09T20:36:52.060Z,55.58
2022-11-09T20:39:40.659Z,54.08
2022-11-09T20:42:26.429Z,51.92
2022-11-09T20:45:11.804Z,48.65
2022-11-09T20:48:10.452Z,44.88
2022-11-09T20:51:08.000Z,44.08
2022-11-09T20:53:53.348Z,46.53
2022-11-09T20:56:39.126Z,48.00
2022-11-09T20:59:24.280Z,48.55
2022-11-09T21:02:14.828Z,47.25
2022-11-09T21:05:00.935Z,46.92
2022-11-09T21:07:46.364Z,43.67
2022-11-09T21:10:31.807Z,44.03
2022-11-09T21:13:17.760Z,46.17
2022-11-09T21:16:11.838Z,42.75
2022-11-09T21:18:57.420Z,45.00
2022-11-09T21:21:43.081Z,43.00
2022-11-09T21:24:47.626Z,42.53
2022-11-09T21:27:51.707Z,43.03
2022-11-09T21:30:37.301Z,41.53
2022-11-09T21:33:23.236Z,38.58
2022-11-09T21:36:11.012Z,38.88
2022-11-09T21:38:56.303Z,39.97
2022-11-09T21:41:42.402Z,40.78
2022-11-09T21:44:29.282Z,39.38
2022-11-09T21:47:15.057Z,42.33
2022-11-09T21:50:00.325Z,41.35
2022-11-09T21:52:45.813Z,40.85
2022-11-09T21:55:31.015Z,42.05
2022-11-09T21:58:16.597Z,44.85
2022-11-09T22:01:03.689Z,41.88
2022-11-09T22:03:50.149Z,41.80
2022-11-09T22:06:40.597Z,42.85
2022-11-09T22:09:29.644Z,41.53
2022-11-09T22:12:39.732Z,40.88
2022-11-09T22:15:43.768Z,40.67
2022-11-09T22:18:50.959Z,40.58
2022-11-09T22:21:36.632Z,42.22
2022-11-09T22:24:21.944Z,42.78
2022-11-09T22:27:07.653Z,46.45
2022-11-09T22:29:53.022Z,45.58
2022-11-09T22:32:38.487Z,45.42
2022-11-09T22:35:24.149Z,46.53
2022-11-09T22:38:09.709Z,45.65
2022-11-09T22:41:03.736Z,43.55
2022-11-09T22:46:34.447Z,44.38
2022-11-09T22:49:20.192Z,46.35
2022-11-09T22:52:05.502Z,50.83
2022-11-09T22:54:51.121Z,54.47
2022-11-09T22:57:37.911Z,54.65
2022-11-09T23:00:23.456Z,58.33
2022-11-09T23:03:08.832Z,57.97
2022-11-09T23:06:01.591Z,57.97
2022-11-09T23:08:47.444Z,58.92
2022-11-09T23:11:33.056Z,57.25
2022-11-09T23:14:38.186Z,59.63
2022-11-09T23:17:41.925Z,58.35
2022-11-09T23:20:32.696Z,57.85
2022-11-09T23:23:21.127Z,60.65
2022-11-09T23:26:07.954Z,60.60
2022-11-09T23:28:54.230Z,60.70
2022-11-09T23:31:39.771Z,58.17
2022-11-09T23:34:25.335Z,58.53
2022-11-09T23:37:10.755Z,63.17
2022-11-09T23:39:56.460Z,63.97
2022-11-09T23:42:41.755Z,65.68
2022-11-09T23:45:27.766Z,68.10
2022-11-09T23:48:16.628Z,69.95
2022-11-09T23:51:03.619Z,74.68
2022-11-09T23:53:48.876Z,75.00
2022-11-09T23:56:34.459Z,76.53
2022-11-09T23:59:19.924Z,75.95
